Time;durP1;ratioP1;P1;durP2;ratioP2;P2;SDS_P1;SDS_P2;PMS_P1;PMS_P2;Temp;Humidity;BMP_temperature;BMP_pressure;BME280_temperature;BME280_humidity;BME280_pressure;Samples;Min_cycle;Max_cycle;Signal;HPM_P1;HPM_P2
2022/02/07 00:00:11;;;;;;;38.90;20.20;;;;;;;;;;5053235;28;20048;-85
2022/02/07 00:05:26;;;;;;;30.13;18.23;;;;;;;;;;5042813;28;20025;-85
2022/02/07 00:07:53;;;;;;;31.25;18.42;;;;;;;;;;5052964;28;20041;-85
2022/02/07 00:10:20;;;;;;;26.42;15.25;;;;;;;;;;5053670;28;20095;-85
2022/02/07 00:12:46;;;;;;;38.47;21.50;;;;;;;;;;5054196;28;20036;-84
2022/02/07 00:15:12;;;;;;;33.95;18.13;;;;;;;;;;5052457;28;20053;-84
2022/02/07 00:17:39;;;;;;;36.90;20.77;;;;;;;;;;5052638;28;20379;-85
2022/02/07 00:20:10;;;;;;;34.30;18.85;;;;;;;;;;5053035;28;20025;-86
2022/02/07 00:22:36;;;;;;;39.63;22.67;;;;;;;;;;5053125;28;20047;-85
2022/02/07 00:25:03;;;;;;;46.80;29.42;;;;;;;;;;5053846;28;20025;-85
2022/02/07 00:27:29;;;;;;;52.92;30.38;;;;;;;;;;5054042;28;20055;-85
2022/02/07 00:29:55;;;;;;;48.40;30.00;;;;;;;;;;5052357;28;20029;-85
2022/02/07 00:32:22;;;;;;;73.55;36.95;;;;;;;;;;5052415;28;20492;-85
2022/02/07 00:34:48;;;;;;;63.53;31.50;;;;;;;;;;5053588;28;20104;-85
2022/02/07 00:37:14;;;;;;;47.40;25.23;;;;;;;;;;5054380;28;20028;-84
2022/02/07 00:39:50;;;;;;;43.78;22.13;;;;;;;;;;5056603;28;20021;-84
2022/02/07 00:42:28;;;;;;;38.90;21.20;;;;;;;;;;5056430;28;20029;-84
2022/02/07 00:44:56;;;;;;;38.60;21.27;;;;;;;;;;5056193;28;20032;-84
2022/02/07 00:47:22;;;;;;;38.15;20.83;;;;;;;;;;5056431;28;20031;-84
2022/02/07 00:49:48;;;;;;;34.20;19.15;;;;;;;;;;5056287;28;20532;-83
2022/02/07 00:52:14;;;;;;;39.25;19.98;;;;;;;;;;5055836;28;20025;-83
2022/02/07 00:54:41;;;;;;;29.52;17.52;;;;;;;;;;5056013;28;20028;-84
2022/02/07 00:57:07;;;;;;;29.85;16.60;;;;;;;;;;5057491;28;20036;-85
2022/02/07 00:59:33;;;;;;;43.95;22.92;;;;;;;;;;5057124;28;20021;-85
2022/02/07 01:01:59;;;;;;;44.20;22.73;;;;;;;;;;5057519;28;20381;-85
2022/02/07 01:04:25;;;;;;;46.90;25.75;;;;;;;;;;5056052;28;20121;-85
2022/02/07 01:06:52;;;;;;;38.13;21.88;;;;;;;;;;5056985;28;20358;-84
2022/02/07 01:09:27;;;;;;;33.00;17.73;;;;;;;;;;5057121;28;20028;-85
2022/02/07 01:12:05;;;;;;;28.77;15.95;;;;;;;;;;5056920;28;20409;-83
2022/02/07 01:20:27;;;;;;;27.75;16.65;;;;;;;;;;5056676;28;20033;-85
2022/02/07 01:53:18;;;;;;;24.85;13.68;;;;;;;;;;5056398;28;21027;-83
2022/02/07 01:55:50;;;;;;;22.05;12.88;;;;;;;;;;5054346;28;20041;-83
2022/02/07 01:58:16;;;;;;;20.92;12.52;;;;;;;;;;5055201;28;20021;-84
2022/02/07 02:00:43;;;;;;;25.70;13.15;;;;;;;;;;5056415;28;20104;-85
2022/02/07 02:03:10;;;;;;;29.83;15.38;;;;;;;;;;5056017;28;20464;-85
2022/02/07 02:05:37;;;;;;;36.85;22.30;;;;;;;;;;5054896;28;20032;-85
2022/02/07 02:08:11;;;;;;;44.75;26.15;;;;;;;;;;5054784;28;20104;-84
2022/02/07 02:10:41;;;;;;;41.40;24.70;;;;;;;;;;5054602;28;20582;-84
2022/02/07 02:13:16;;;;;;;50.72;27.70;;;;;;;;;;5054677;28;20431;-83
2022/02/07 02:35:14;;;;;;;21.85;12.07;;;;;;;;;;5055654;28;20028;-84
2022/02/07 02:37:29;;;;;;;25.92;15.68;;;;;;;;;;5054918;28;20029;-84
2022/02/07 02:45:34;;;;;;;32.45;17.35;;;;;;;;;;5055093;28;20087;-85
2022/02/07 02:48:05;;;;;;;30.33;16.25;;;;;;;;;;5053940;28;20031;-85
2022/02/07 02:50:35;;;;;;;25.48;14.88;;;;;;;;;;5054949;28;20541;-84
2022/02/07 02:53:04;;;;;;;29.85;17.25;;;;;;;;;;5055371;28;20029;-84
2022/02/07 02:55:31;;;;;;;32.47;15.70;;;;;;;;;;5054934;28;20040;-84
2022/02/07 02:57:58;;;;;;;28.15;14.68;;;;;;;;;;5053405;28;20025;-85
2022/02/07 03:00:25;;;;;;;27.67;14.90;;;;;;;;;;5053081;28;20021;-85
2022/02/07 03:02:51;;;;;;;23.30;14.65;;;;;;;;;;5054189;28;20032;-85
2022/02/07 03:05:17;;;;;;;27.55;15.20;;;;;;;;;;5055043;28;20151;-85
2022/02/07 03:07:44;;;;;;;27.45;15.98;;;;;;;;;;5053957;28;20377;-85
2022/02/07 03:10:21;;;;;;;30.73;16.23;;;;;;;;;;5054919;28;20025;-85
2022/02/07 03:13:00;;;;;;;30.27;17.63;;;;;;;;;;5054593;28;20013;-84
2022/02/07 03:18:11;;;;;;;30.58;17.35;;;;;;;;;;5057559;28;20098;-83
2022/02/07 03:20:37;;;;;;;33.97;18.42;;;;;;;;;;5060182;28;20032;-83
2022/02/07 03:23:03;;;;;;;38.30;22.48;;;;;;;;;;5061716;28;20112;-84
2022/02/07 03:25:30;;;;;;;33.65;18.90;;;;;;;;;;5060019;28;20082;-85
2022/02/07 03:27:56;;;;;;;29.88;17.88;;;;;;;;;;5055267;28;20112;-85
2022/02/07 03:30:22;;;;;;;30.48;17.98;;;;;;;;;;5053666;28;20021;-85
2022/02/07 03:32:48;;;;;;;38.28;21.15;;;;;;;;;;5053250;28;20083;-85
2022/02/07 03:35:16;;;;;;;30.58;18.50;;;;;;;;;;5053309;28;20033;-85
2022/02/07 03:37:42;;;;;;;35.53;18.60;;;;;;;;;;5053501;28;20066;-85
2022/02/07 03:40:09;;;;;;;28.15;16.73;;;;;;;;;;5054155;28;20413;-85
2022/02/07 03:42:35;;;;;;;30.63;16.60;;;;;;;;;;5054589;28;20481;-85
2022/02/07 03:45:01;;;;;;;27.38;15.77;;;;;;;;;;5054437;28;20025;-85
2022/02/07 03:47:30;;;;;;;26.95;13.63;;;;;;;;;;5054115;28;20033;-85
2022/02/07 03:49:56;;;;;;;25.10;15.77;;;;;;;;;;5054184;28;20024;-84
2022/02/07 03:52:23;;;;;;;26.17;14.63;;;;;;;;;;5054088;28;20432;-83
2022/02/07 03:54:49;;;;;;;25.38;14.40;;;;;;;;;;5053853;28;20064;-85
2022/02/07 03:57:16;;;;;;;23.60;14.23;;;;;;;;;;5054192;28;20556;-85
2022/02/07 03:59:42;;;;;;;26.35;13.52;;;;;;;;;;5054236;28;20059;-85
2022/02/07 04:02:08;;;;;;;24.63;14.00;;;;;;;;;;5052772;28;20075;-85
2022/02/07 04:04:35;;;;;;;24.35;13.73;;;;;;;;;;5053161;28;20397;-85
2022/02/07 04:07:03;;;;;;;22.17;12.77;;;;;;;;;;5054307;28;20021;-85
2022/02/07 04:09:35;;;;;;;21.75;12.95;;;;;;;;;;5054191;28;20542;-85
2022/02/07 04:12:12;;;;;;;27.00;14.80;;;;;;;;;;5054536;28;20041;-85
2022/02/07 04:14:39;;;;;;;24.30;14.48;;;;;;;;;;5052943;28;20515;-85
2022/02/07 04:17:08;;;;;;;53.97;28.75;;;;;;;;;;5052524;28;20036;-85
2022/02/07 04:19:35;;;;;;;35.40;21.63;;;;;;;;;;5053179;28;20045;-85
2022/02/07 04:22:05;;;;;;;31.70;19.88;;;;;;;;;;5052423;28;20029;-85
2022/02/07 04:24:31;;;;;;;25.55;16.50;;;;;;;;;;5054162;28;20108;-85
2022/02/07 04:26:58;;;;;;;35.65;18.27;;;;;;;;;;5053867;28;20027;-86
2022/02/07 04:29:24;;;;;;;33.47;20.38;;;;;;;;;;5053771;28;20021;-85
2022/02/07 04:31:50;;;;;;;40.75;24.45;;;;;;;;;;5052883;28;20021;-85
2022/02/07 04:34:17;;;;;;;36.25;21.27;;;;;;;;;;5053886;28;20048;-85
2022/02/07 04:36:45;;;;;;;36.58;21.75;;;;;;;;;;5053572;28;20485;-85
2022/02/07 04:39:11;;;;;;;40.15;22.02;;;;;;;;;;5052978;28;20021;-85
2022/02/07 04:41:42;;;;;;;36.30;20.73;;;;;;;;;;5054350;28;20123;-85
2022/02/07 04:44:13;;;;;;;32.78;17.80;;;;;;;;;;5052488;28;20017;-85
2022/02/07 04:52:23;;;;;;;28.08;15.27;;;;;;;;;;5053342;28;20389;-85
2022/02/07 04:54:54;;;;;;;48.97;23.83;;;;;;;;;;5053402;28;20067;-85
2022/02/07 04:57:45;;;;;;;49.60;27.00;;;;;;;;;;5053248;28;20552;-85
2022/02/07 05:02:57;;;;;;;59.90;29.95;;;;;;;;;;5053600;28;20530;-79
2022/02/07 05:16:30;;;;;;;35.38;17.38;;;;;;;;;;5040528;28;20049;-80
2022/02/07 05:19:00;;;;;;;33.55;19.60;;;;;;;;;;5051113;28;20048;-78
2022/02/07 05:21:27;;;;;;;35.03;19.95;;;;;;;;;;5051761;28;20113;-80
2022/02/07 05:23:53;;;;;;;28.52;17.23;;;;;;;;;;5055940;28;20092;-79
2022/02/07 05:26:20;;;;;;;28.90;15.93;;;;;;;;;;5054733;28;20122;-76
2022/02/07 05:28:47;;;;;;;30.50;15.45;;;;;;;;;;5055158;28;20029;-77
2022/02/07 05:31:13;;;;;;;28.90;15.18;;;;;;;;;;5056230;28;20048;-77
2022/02/07 05:33:39;;;;;;;25.90;16.77;;;;;;;;;;5054558;28;20481;-77
2022/02/07 05:36:10;;;;;;;32.95;18.45;;;;;;;;;;5056236;28;20182;-77
2022/02/07 05:38:38;;;;;;;31.60;18.58;;;;;;;;;;5056337;28;20104;-77
2022/02/07 05:41:06;;;;;;;34.53;19.23;;;;;;;;;;5054353;28;20032;-77
2022/02/07 05:43:32;;;;;;;43.75;25.80;;;;;;;;;;5056316;28;20024;-78
2022/02/07 05:45:59;;;;;;;51.42;27.80;;;;;;;;;;5056108;28;20029;-76
2022/02/07 05:48:25;;;;;;;45.42;27.73;;;;;;;;;;5054282;28;20021;-77
2022/02/07 05:50:51;;;;;;;51.40;27.42;;;;;;;;;;5055930;28;20025;-76
2022/02/07 05:53:17;;;;;;;45.58;23.90;;;;;;;;;;5055494;28;20419;-76
2022/02/07 05:55:44;;;;;;;44.70;25.50;;;;;;;;;;5055997;28;20036;-76
2022/02/07 05:58:10;;;;;;;38.45;22.58;;;;;;;;;;5055815;28;20075;-76
2022/02/07 06:00:37;;;;;;;54.63;30.00;;;;;;;;;;5055491;28;20596;-76
2022/02/07 06:03:04;;;;;;;63.47;33.17;;;;;;;;;;5051610;28;20128;-75
2022/02/07 06:05:31;;;;;;;61.60;36.15;;;;;;;;;;5053772;28;20370;-77
2022/02/07 06:07:57;;;;;;;53.42;31.38;;;;;;;;;;5053488;28;20029;-76
2022/02/07 06:10:24;;;;;;;56.67;30.23;;;;;;;;;;5053111;28;20028;-80
2022/02/07 06:12:51;;;;;;;42.30;25.42;;;;;;;;;;5050600;28;20049;-73
2022/02/07 06:15:18;;;;;;;39.90;21.63;;;;;;;;;;5053353;28;20512;-70
2022/02/07 06:17:47;;;;;;;30.88;18.02;;;;;;;;;;5052256;28;20057;-70
2022/02/07 06:20:14;;;;;;;44.83;24.33;;;;;;;;;;5055049;28;20025;-75
2022/02/07 06:22:40;;;;;;;45.55;26.33;;;;;;;;;;5048771;28;20103;-82
2022/02/07 06:25:07;;;;;;;39.65;25.75;;;;;;;;;;5052422;28;20025;-78
2022/02/07 06:27:33;;;;;;;65.30;37.92;;;;;;;;;;5053434;28;20083;-79
2022/02/07 06:29:59;;;;;;;75.60;42.22;;;;;;;;;;5051218;28;20025;-79
2022/02/07 06:32:26;;;;;;;73.93;38.72;;;;;;;;;;5053556;28;20135;-78
2022/02/07 06:34:53;;;;;;;44.50;26.05;;;;;;;;;;5054441;28;20081;-76
2022/02/07 06:37:25;;;;;;;43.15;23.98;;;;;;;;;;5053409;28;20033;-76
2022/02/07 06:39:51;;;;;;;32.53;20.48;;;;;;;;;;5053081;28;20147;-77
2022/02/07 06:42:19;;;;;;;33.20;20.73;;;;;;;;;;5051238;28;20499;-77
2022/02/07 06:44:45;;;;;;;55.38;31.33;;;;;;;;;;5052290;28;20025;-80
2022/02/07 06:47:11;;;;;;;61.08;35.40;;;;;;;;;;5054198;28;20110;-77
2022/02/07 06:49:38;;;;;;;69.97;39.80;;;;;;;;;;5052785;28;20025;-80
2022/02/07 06:52:04;;;;;;;72.22;40.40;;;;;;;;;;5052690;28;20029;-74
2022/02/07 06:54:31;;;;;;;71.50;38.13;;;;;;;;;;5045222;28;20032;-76
2022/02/07 06:56:57;;;;;;;58.15;34.55;;;;;;;;;;5040397;28;20032;-81
2022/02/07 06:59:24;;;;;;;56.03;34.85;;;;;;;;;;5041494;28;20519;-78
2022/02/07 07:01:51;;;;;;;48.83;30.67;;;;;;;;;;5052423;28;20029;-81
2022/02/07 07:04:17;;;;;;;49.60;29.90;;;;;;;;;;5053159;28;20817;-84
2022/02/07 07:06:43;;;;;;;57.25;35.30;;;;;;;;;;5052365;28;20079;-77
2022/02/07 07:09:12;;;;;;;49.92;32.65;;;;;;;;;;5049949;28;20025;-77
2022/02/07 07:11:41;;;;;;;59.80;32.85;;;;;;;;;;5052678;28;20021;-74
2022/02/07 07:14:28;;;;;;;66.05;38.10;;;;;;;;;;5052990;28;20460;-76
2022/02/07 07:16:55;;;;;;;70.57;42.38;;;;;;;;;;5053339;28;20037;-77
2022/02/07 07:19:22;;;;;;;71.70;42.67;;;;;;;;;;5052954;28;20021;-74
2022/02/07 07:21:49;;;;;;;99.15;56.78;;;;;;;;;;5053573;28;20025;-82
2022/02/07 07:24:17;;;;;;;97.05;53.42;;;;;;;;;;5052806;28;20029;-82
2022/02/07 07:26:43;;;;;;;103.93;59.70;;;;;;;;;;5053818;28;20037;-80
2022/02/07 07:29:14;;;;;;;98.03;52.88;;;;;;;;;;5052956;28;20016;-80
2022/02/07 07:31:48;;;;;;;88.43;51.58;;;;;;;;;;5053741;28;20077;-79
2022/02/07 07:34:17;;;;;;;104.78;60.25;;;;;;;;;;5051593;28;20024;-73
2022/02/07 07:36:44;;;;;;;136.10;73.20;;;;;;;;;;5052734;28;20064;-75
2022/02/07 07:39:12;;;;;;;180.40;102.65;;;;;;;;;;5051230;28;20043;-74
2022/02/07 07:41:40;;;;;;;180.73;107.47;;;;;;;;;;5047018;28;20725;-79
2022/02/07 07:44:06;;;;;;;141.13;85.05;;;;;;;;;;5037670;28;20025;-84
2022/02/07 07:46:33;;;;;;;155.35;82.03;;;;;;;;;;5045267;28;20029;-74
2022/02/07 07:49:08;;;;;;;250.13;126.90;;;;;;;;;;5052120;28;20036;-77
2022/02/07 07:51:55;;;;;;;289.88;145.57;;;;;;;;;;5050707;28;20481;-84
2022/02/07 08:02:21;;;;;;;189.23;104.03;;;;;;;;;;5050198;28;20102;-75
2022/02/07 08:04:48;;;;;;;152.63;83.60;;;;;;;;;;5049653;28;20141;-76
2022/02/07 08:07:24;;;;;;;112.32;66.82;;;;;;;;;;5050178;28;20379;-77
2022/02/07 08:12:38;;;;;;;90.10;54.13;;;;;;;;;;5051879;28;20044;-76
2022/02/07 08:15:05;;;;;;;78.10;49.53;;;;;;;;;;5050426;28;20461;-74
2022/02/07 08:17:31;;;;;;;88.75;51.80;;;;;;;;;;5050230;28;20445;-76
2022/02/07 08:19:58;;;;;;;91.45;53.65;;;;;;;;;;5048973;28;20045;-69
2022/02/07 08:22:25;;;;;;;81.45;46.35;;;;;;;;;;5048958;28;20029;-77
2022/02/07 08:25:00;;;;;;;120.35;68.57;;;;;;;;;;5049910;28;20021;-75
2022/02/07 08:27:27;;;;;;;137.77;82.00;;;;;;;;;;5048617;28;20025;-76
2022/02/07 08:29:54;;;;;;;132.80;80.45;;;;;;;;;;5046889;28;20029;-74
2022/02/07 08:32:21;;;;;;;110.18;64.13;;;;;;;;;;5049152;28;20025;-73
2022/02/07 08:34:48;;;;;;;118.28;64.70;;;;;;;;;;5050026;28;20044;-76
2022/02/07 08:37:15;;;;;;;111.63;64.85;;;;;;;;;;5049330;28;20022;-77
2022/02/07 08:39:42;;;;;;;175.43;94.90;;;;;;;;;;5050659;28;20436;-75
2022/02/07 08:42:09;;;;;;;224.68;125.40;;;;;;;;;;5050148;28;20031;-74
2022/02/07 08:44:36;;;;;;;248.00;136.30;;;;;;;;;;5050813;28;20032;-74
2022/02/07 08:47:02;;;;;;;185.75;109.00;;;;;;;;;;5049735;28;20021;-74
2022/02/07 08:49:28;;;;;;;139.43;82.30;;;;;;;;;;5047199;28;20354;-75
2022/02/07 08:51:55;;;;;;;118.95;75.70;;;;;;;;;;5050822;28;20029;-74
2022/02/07 08:54:25;;;;;;;134.23;84.28;;;;;;;;;;5052041;28;20021;-75
2022/02/07 08:56:57;;;;;;;126.00;82.82;;;;;;;;;;5050829;28;20500;-73
2022/02/07 08:59:31;;;;;;;128.82;82.97;;;;;;;;;;5045235;28;20028;-76
2022/02/07 09:02:15;;;;;;;135.32;84.22;;;;;;;;;;5047068;28;20416;-72
2022/02/07 09:07:17;;;;;;;125.72;78.90;;;;;;;;;;5033585;28;20117;-70
2022/02/07 09:09:45;;;;;;;116.30;76.80;;;;;;;;;;5032317;28;20028;-72
2022/02/07 09:12:12;;;;;;;112.82;70.18;;;;;;;;;;5032634;28;20524;-80
2022/02/07 09:14:44;;;;;;;74.28;45.08;;;;;;;;;;5052031;28;20128;-76
2022/02/07 09:17:11;;;;;;;59.25;36.55;;;;;;;;;;5053979;28;20021;-74
2022/02/07 09:19:38;;;;;;;71.70;42.58;;;;;;;;;;5053892;28;20025;-78
2022/02/07 09:22:05;;;;;;;83.20;50.00;;;;;;;;;;5053787;28;20021;-74
2022/02/07 09:24:32;;;;;;;89.85;52.75;;;;;;;;;;5052624;28;20032;-77
2022/02/07 09:26:58;;;;;;;88.22;53.10;;;;;;;;;;5055364;28;20465;-79
2022/02/07 09:29:25;;;;;;;85.93;57.08;;;;;;;;;;5053403;28;20439;-76
2022/02/07 09:31:51;;;;;;;101.07;64.65;;;;;;;;;;5051401;28;20511;-72
2022/02/07 09:34:18;;;;;;;104.05;61.97;;;;;;;;;;5055042;28;20056;-73
2022/02/07 09:36:44;;;;;;;79.65;46.05;;;;;;;;;;5053607;28;20037;-75
2022/02/07 09:39:11;;;;;;;69.15;41.90;;;;;;;;;;5053834;28;20067;-74
2022/02/07 09:41:37;;;;;;;75.97;44.10;;;;;;;;;;5053702;28;20048;-75
2022/02/07 09:44:04;;;;;;;54.78;33.13;;;;;;;;;;5051695;28;20496;-71
2022/02/07 09:47:04;;;;;;;63.60;38.30;;;;;;;;;;5052712;28;20021;-74
2022/02/07 09:49:25;;;;;;;48.93;29.73;;;;;;;;;;5051290;28;20025;-71
2022/02/07 09:51:53;;;;;;;44.92;29.70;;;;;;;;;;5051161;28;20423;-75
2022/02/07 09:54:20;;;;;;;52.00;33.10;;;;;;;;;;5052561;28;20028;-74
2022/02/07 09:56:48;;;;;;;126.43;69.07;;;;;;;;;;5052481;28;20567;-74
2022/02/07 09:59:15;;;;;;;109.30;64.65;;;;;;;;;;5052120;28;20013;-74
2022/02/07 10:01:46;;;;;;;120.28;60.78;;;;;;;;;;5050236;28;20120;-76
2022/02/07 10:04:21;;;;;;;76.97;45.78;;;;;;;;;;5052499;28;20025;-78
2022/02/07 10:06:56;;;;;;;50.33;32.45;;;;;;;;;;5053826;28;20182;-76
2022/02/07 10:14:37;;;;;;;36.63;24.13;;;;;;;;;;5053864;28;20044;-73
2022/02/07 10:17:31;;;;;;;29.55;21.15;;;;;;;;;;5054522;28;20508;-74
2022/02/07 10:39:30;;;;;;;26.75;17.42;;;;;;;;;;5054046;28;20058;-74
2022/02/07 10:45:01;;;;;;;35.45;19.42;;;;;;;;;;5063869;28;20037;-78
2022/02/07 10:47:40;;;;;;;23.45;15.73;;;;;;;;;;5054170;28;20412;-77
2022/02/07 10:50:09;;;;;;;21.25;13.95;;;;;;;;;;5054115;28;20021;-77
2022/02/07 10:52:48;;;;;;;19.30;12.90;;;;;;;;;;5052211;28;20025;-74
2022/02/07 10:55:18;;;;;;;23.08;13.30;;;;;;;;;;5053852;28;20098;-77
2022/02/07 10:57:46;;;;;;;20.83;12.18;;;;;;;;;;5053453;28;20036;-77
2022/02/07 11:00:14;;;;;;;21.27;12.63;;;;;;;;;;5053925;28;20027;-75
2022/02/07 11:02:46;;;;;;;22.73;13.18;;;;;;;;;;5052661;28;20025;-72
2022/02/07 11:06:36;;;;;;;27.95;14.55;;;;;;;;;;5109424;27;20428;-74
2022/02/07 11:19:43;;;;;;;15.80;11.00;;;;;;;;;;5107279;28;20058;-75
2022/02/07 11:23:09;;;;;;;14.07;9.63;;;;;;;;;;5106240;28;20551;-77
2022/02/07 11:30:52;;;;;;;16.08;11.90;;;;;;;;;;5101785;27;20428;-76
2022/02/07 11:33:34;;;;;;;18.63;11.15;;;;;;;;;;5092361;28;20063;-77
2022/02/07 11:37:30;;;;;;;28.70;17.48;;;;;;;;;;5101566;27;20479;-74
2022/02/07 11:44:31;;;;;;;38.00;24.13;;;;;;;;;;5030143;28;20420;-74
2022/02/07 11:51:28;;;;;;;22.67;14.02;;;;;;;;;;5109924;27;20425;-72
2022/02/07 11:54:02;;;;;;;34.15;22.13;;;;;;;;;;5108830;28;20035;-68
2022/02/07 11:56:47;;;;;;;43.85;31.67;;;;;;;;;;5069447;28;20425;-71
2022/02/07 11:59:22;;;;;;;25.15;15.60;;;;;;;;;;5069549;28;20028;-71
2022/02/07 12:02:02;;;;;;;25.20;15.27;;;;;;;;;;5067489;28;20033;-74
2022/02/07 12:04:29;;;;;;;22.60;15.70;;;;;;;;;;5068707;28;20388;-72
2022/02/07 12:10:36;;;;;;;18.58;11.07;;;;;;;;;;5110402;27;20441;-72
2022/02/07 12:13:08;;;;;;;16.95;10.85;;;;;;;;;;5110414;28;20495;-75
2022/02/07 12:15:37;;;;;;;21.35;10.40;;;;;;;;;;5102969;28;20503;-71
2022/02/07 12:18:22;;;;;;;17.63;9.20;;;;;;;;;;5066303;28;20388;-73
2022/02/07 12:20:50;;;;;;;28.27;16.23;;;;;;;;;;5068224;28;20035;-69
2022/02/07 12:23:21;;;;;;;25.75;17.08;;;;;;;;;;5061045;28;20017;-70
2022/02/07 12:25:57;;;;;;;33.38;21.48;;;;;;;;;;5051453;28;20021;-72
2022/02/07 12:33:35;;;;;;;32.17;20.38;;;;;;;;;;5063813;28;20495;-73
2022/02/07 12:36:01;;;;;;;42.90;29.02;;;;;;;;;;5061928;28;20025;-71
2022/02/07 12:38:30;;;;;;;32.92;19.73;;;;;;;;;;5057487;28;20448;-73
2022/02/07 12:40:57;;;;;;;23.27;16.55;;;;;;;;;;5068192;28;20100;-72
2022/02/07 12:43:23;;;;;;;22.92;14.85;;;;;;;;;;5068445;28;20408;-72
2022/02/07 12:45:50;;;;;;;23.85;14.63;;;;;;;;;;5067020;28;20079;-74
2022/02/07 12:48:22;;;;;;;35.78;25.58;;;;;;;;;;5069232;28;20025;-74
2022/02/07 12:50:53;;;;;;;27.17;17.17;;;;;;;;;;5050912;28;20310;-75
2022/02/07 12:53:23;;;;;;;24.00;15.88;;;;;;;;;;5048892;28;20031;-73
2022/02/07 12:55:55;;;;;;;19.27;11.50;;;;;;;;;;5048692;28;20049;-72
2022/02/07 12:58:43;;;;;;;15.57;9.05;;;;;;;;;;5047763;28;20056;-72
2022/02/07 13:01:20;;;;;;;15.30;9.90;;;;;;;;;;5049179;28;20037;-76
2022/02/07 13:03:50;;;;;;;15.30;9.13;;;;;;;;;;5048780;28;20021;-74
2022/02/07 13:06:16;;;;;;;20.67;10.98;;;;;;;;;;5047144;28;20052;-72
2022/02/07 13:08:47;;;;;;;21.05;11.40;;;;;;;;;;5047796;28;20564;-72
2022/02/07 13:11:23;;;;;;;19.15;12.32;;;;;;;;;;5047395;28;20389;-72
2022/02/07 13:13:50;;;;;;;29.15;18.45;;;;;;;;;;5049043;28;20029;-70
2022/02/07 13:16:16;;;;;;;40.17;24.08;;;;;;;;;;5048933;28;20041;-71
2022/02/07 13:18:44;;;;;;;36.92;22.20;;;;;;;;;;5048582;28;20040;-73
2022/02/07 13:21:14;;;;;;;31.75;19.58;;;;;;;;;;5049137;28;20083;-75
2022/02/07 13:23:41;;;;;;;22.65;14.50;;;;;;;;;;5048912;28;20021;-77
2022/02/07 13:26:09;;;;;;;25.35;13.52;;;;;;;;;;5047756;28;20381;-76
2022/02/07 13:28:39;;;;;;;24.77;14.40;;;;;;;;;;5040787;28;20032;-75
2022/02/07 13:31:06;;;;;;;32.75;20.05;;;;;;;;;;5035804;28;20370;-80
2022/02/07 13:33:46;;;;;;;30.23;17.75;;;;;;;;;;5035910;28;20071;-73
2022/02/07 13:36:12;;;;;;;25.48;15.15;;;;;;;;;;5034452;28;20033;-72
2022/02/07 13:38:38;;;;;;;29.35;17.30;;;;;;;;;;5037964;28;20029;-85
2022/02/07 13:41:05;;;;;;;23.70;15.48;;;;;;;;;;5036199;28;20024;-77
2022/02/07 13:43:32;;;;;;;26.38;16.45;;;;;;;;;;5036008;28;20029;-80
2022/02/07 13:46:04;;;;;;;22.15;14.38;;;;;;;;;;5036637;28;20023;-76
2022/02/07 13:48:31;;;;;;;20.65;12.88;;;;;;;;;;5055238;28;20033;-78
2022/02/07 13:50:58;;;;;;;23.50;14.15;;;;;;;;;;5054253;28;20029;-75
2022/02/07 13:53:25;;;;;;;32.53;17.65;;;;;;;;;;5054609;28;20021;-79
2022/02/07 13:55:52;;;;;;;32.30;18.73;;;;;;;;;;5054370;28;20029;-77
2022/02/07 13:58:34;;;;;;;33.85;19.92;;;;;;;;;;5054300;28;20529;-82
2022/02/07 14:01:10;;;;;;;57.33;32.00;;;;;;;;;;5054435;28;20047;-80
2022/02/07 14:03:48;;;;;;;23.83;15.27;;;;;;;;;;5054146;28;20088;-81
2022/02/07 14:06:16;;;;;;;23.17;14.30;;;;;;;;;;5053399;28;20048;-83
2022/02/07 14:08:48;;;;;;;19.10;11.43;;;;;;;;;;5054243;28;20377;-84
2022/02/07 14:11:18;;;;;;;19.33;12.02;;;;;;;;;;5053826;28;20035;-84
2022/02/07 14:13:45;;;;;;;25.02;13.45;;;;;;;;;;5055769;28;20100;-85
2022/02/07 14:16:12;;;;;;;20.25;11.25;;;;;;;;;;5054469;28;20040;-85
2022/02/07 14:18:44;;;;;;;24.13;15.38;;;;;;;;;;5057048;28;20036;-86
2022/02/07 14:21:11;;;;;;;28.70;14.73;;;;;;;;;;5055836;28;20017;-84
2022/02/07 14:23:38;;;;;;;35.22;18.98;;;;;;;;;;5055674;28;20315;-83
2022/02/07 14:26:05;;;;;;;28.55;14.82;;;;;;;;;;5055562;28;20021;-82
2022/02/07 14:28:31;;;;;;;36.33;20.42;;;;;;;;;;5055154;28;20052;-83
2022/02/07 14:30:59;;;;;;;48.30;27.95;;;;;;;;;;5055385;28;20027;-83
2022/02/07 14:33:25;;;;;;;25.88;16.75;;;;;;;;;;5056621;28;20075;-84
2022/02/07 14:35:52;;;;;;;27.27;17.33;;;;;;;;;;5055586;28;20365;-86
2022/02/07 14:38:18;;;;;;;25.63;14.57;;;;;;;;;;5055497;28;20029;-86
2022/02/07 14:40:45;;;;;;;31.48;20.55;;;;;;;;;;5054188;28;20028;-84
2022/02/07 14:43:17;;;;;;;40.13;25.80;;;;;;;;;;5054553;28;20025;-84
2022/02/07 14:45:55;;;;;;;47.17;29.90;;;;;;;;;;5055108;28;20017;-84
2022/02/07 14:48:22;;;;;;;39.53;24.05;;;;;;;;;;5055099;28;20049;-85
2022/02/07 14:50:49;;;;;;;30.98;22.30;;;;;;;;;;5055188;28;20060;-86
2022/02/07 14:53:15;;;;;;;41.80;24.75;;;;;;;;;;5055206;28;20021;-84
2022/02/07 14:55:42;;;;;;;39.22;26.13;;;;;;;;;;5054890;28;20469;-84
2022/02/07 14:58:08;;;;;;;34.92;22.48;;;;;;;;;;5054929;28;20132;-81
2022/02/07 15:00:35;;;;;;;35.20;21.80;;;;;;;;;;5054462;28;20022;-81
2022/02/07 15:03:02;;;;;;;26.85;17.08;;;;;;;;;;5054120;28;20031;-82
2022/02/07 15:05:29;;;;;;;28.13;18.60;;;;;;;;;;5054518;28;20095;-82
2022/02/07 15:07:56;;;;;;;33.50;20.08;;;;;;;;;;5054433;28;20021;-84
2022/02/07 15:10:22;;;;;;;34.40;23.15;;;;;;;;;;5054279;28;20029;-83
2022/02/07 15:12:52;;;;;;;40.55;23.10;;;;;;;;;;5054730;28;20028;-85
2022/02/07 15:15:18;;;;;;;38.25;23.65;;;;;;;;;;5054642;28;20032;-85
2022/02/07 15:17:45;;;;;;;79.25;45.55;;;;;;;;;;5052630;28;20107;-84
2022/02/07 15:20:14;;;;;;;56.58;30.58;;;;;;;;;;5054423;28;20021;-83
2022/02/07 15:22:49;;;;;;;82.60;44.53;;;;;;;;;;5054468;28;20021;-84
2022/02/07 15:25:19;;;;;;;120.18;60.03;;;;;;;;;;5054019;28;20017;-84
2022/02/07 15:27:46;;;;;;;78.03;41.10;;;;;;;;;;5054080;28;20481;-83
2022/02/07 15:30:12;;;;;;;52.08;29.65;;;;;;;;;;5053753;28;20071;-83
2022/02/07 15:32:41;;;;;;;68.07;36.42;;;;;;;;;;5052650;28;20055;-83
2022/02/07 15:35:08;;;;;;;72.53;42.00;;;;;;;;;;5054168;28;20024;-84
2022/02/07 15:37:35;;;;;;;43.03;24.67;;;;;;;;;;5053965;28;20189;-84
2022/02/07 15:40:01;;;;;;;69.20;42.25;;;;;;;;;;5052744;28;20017;-83
2022/02/07 15:42:28;;;;;;;43.22;26.85;;;;;;;;;;5053966;28;20025;-85
2022/02/07 15:44:59;;;;;;;40.72;24.27;;;;;;;;;;5053692;28;20096;-84
2022/02/07 15:47:30;;;;;;;47.20;29.60;;;;;;;;;;5053993;28;20377;-83
2022/02/07 15:49:56;;;;;;;57.47;34.00;;;;;;;;;;5054015;28;20017;-84
2022/02/07 15:52:22;;;;;;;78.38;48.58;;;;;;;;;;5052461;28;20449;-87
2022/02/07 15:54:52;;;;;;;48.83;30.92;;;;;;;;;;5054445;28;20021;-83
2022/02/07 15:57:19;;;;;;;38.55;23.25;;;;;;;;;;5054072;28;20082;-82
2022/02/07 15:59:45;;;;;;;34.63;19.10;;;;;;;;;;5053554;28;20032;-82
2022/02/07 16:02:11;;;;;;;57.00;36.50;;;;;;;;;;5052441;28;20029;-83
2022/02/07 16:04:41;;;;;;;72.32;46.40;;;;;;;;;;5050742;28;20363;-87
2022/02/07 16:07:15;;;;;;;31.50;16.92;;;;;;;;;;5052563;28;20029;-85
2022/02/07 16:09:42;;;;;;;25.65;14.85;;;;;;;;;;5053542;28;20088;-83
2022/02/07 16:12:12;;;;;;;16.13;9.50;;;;;;;;;;5036242;28;20034;-84
2022/02/07 16:14:38;;;;;;;11.73;5.35;;;;;;;;;;5033853;28;20121;-83
2022/02/07 16:17:06;;;;;;;8.93;4.38;;;;;;;;;;5037840;28;20053;-84
2022/02/07 16:19:32;;;;;;;7.35;3.78;;;;;;;;;;5053760;28;20032;-85
2022/02/07 16:22:01;;;;;;;7.97;4.30;;;;;;;;;;5053594;28;20104;-84
2022/02/07 16:24:27;;;;;;;13.77;6.28;;;;;;;;;;5053596;28;20025;-82
2022/02/07 16:26:53;;;;;;;13.43;7.30;;;;;;;;;;5047538;28;20018;-84
2022/02/07 16:29:20;;;;;;;19.90;11.00;;;;;;;;;;5033948;28;20123;-85
2022/02/07 16:31:49;;;;;;;20.02;10.00;;;;;;;;;;5033593;28;20139;-82
2022/02/07 16:34:21;;;;;;;25.35;13.70;;;;;;;;;;5048968;28;20029;-84
2022/02/07 16:36:48;;;;;;;23.45;10.60;;;;;;;;;;5044849;28;20084;-83
2022/02/07 16:39:20;;;;;;;26.58;13.73;;;;;;;;;;5032672;28;20021;-82
2022/02/07 16:41:46;;;;;;;23.58;12.50;;;;;;;;;;5033524;28;20105;-84
2022/02/07 16:44:13;;;;;;;17.42;9.40;;;;;;;;;;5032847;28;20028;-82
2022/02/07 16:46:49;;;;;;;20.05;9.05;;;;;;;;;;5032771;28;20017;-83
2022/02/07 16:49:15;;;;;;;18.92;9.88;;;;;;;;;;5033072;28;20081;-85
2022/02/07 16:51:42;;;;;;;22.08;11.52;;;;;;;;;;5032726;28;20068;-85
2022/02/07 16:54:08;;;;;;;20.30;11.50;;;;;;;;;;5032465;28;20022;-86
2022/02/07 16:56:36;;;;;;;24.20;13.27;;;;;;;;;;5032454;28;20079;-83
2022/02/07 16:59:03;;;;;;;14.30;8.32;;;;;;;;;;5032227;28;20018;-81
2022/02/07 17:01:29;;;;;;;15.20;9.73;;;;;;;;;;5031246;28;20101;-81
2022/02/07 17:03:56;;;;;;;14.13;6.50;;;;;;;;;;5032246;28;20026;-80
2022/02/07 17:06:23;;;;;;;14.50;7.75;;;;;;;;;;5036665;28;20087;-83
2022/02/07 17:08:53;;;;;;;15.85;7.88;;;;;;;;;;5036862;28;20481;-84